Time;durP1;ratioP1;P1;durP2;ratioP2;P2;SDS_P1;SDS_P2;PMS_P1;PMS_P2;Temp;Humidity;BMP_temperature;BMP_pressure;BME280_temperature;BME280_humidity;BME280_pressure;Samples;Min_cycle;Max_cycle;Signal;HPM_P1;HPM_P2
2022/07/28 04:22:48;;;;;;;3.80;1.65;;;;;;;15.86;63.74;100122.19;5089218;28;20328;-66
2022/07/28 04:25:16;;;;;;;7.37;2.60;;;;;;;15.84;63.99;100118.06;5088852;28;20039;-66
2022/07/28 04:27:42;;;;;;;2.58;1.55;;;;;;;15.85;64.21;100111.69;5089026;28;20044;-66
2022/07/28 04:30:13;;;;;;;2.35;1.70;;;;;;;15.84;64.17;100118.88;5088556;28;20044;-66
2022/07/28 04:32:39;;;;;;;2.20;1.38;;;;;;;15.88;64.04;100125.50;5088990;28;20047;-66
2022/07/28 04:35:08;;;;;;;2.65;1.50;;;;;;;15.89;64.24;100120.94;5089313;28;20085;-66
2022/07/28 04:37:34;;;;;;;7.30;1.50;;;;;;;15.86;63.90;100122.19;5088784;28;20039;-66
2022/07/28 04:39:59;;;;;;;4.00;1.52;;;;;;;15.86;64.07;100121.38;5088515;28;20119;-66
2022/07/28 04:42:24;;;;;;;4.63;1.60;;;;;;;15.89;63.90;100120.94;5088624;28;20056;-66
2022/07/28 04:44:50;;;;;;;4.07;1.52;;;;;;;15.90;64.04;100123.41;5088935;28;20039;-66
2022/07/28 04:47:16;;;;;;;2.53;1.50;;;;;;;15.97;64.21;100126.94;5088625;28;20040;-67
2022/07/28 04:49:41;;;;;;;2.58;1.13;;;;;;;15.98;64.36;100117.84;5088354;28;20097;-66
2022/07/28 04:52:07;;;;;;;3.00;1.33;;;;;;;15.98;63.53;100112.47;5088605;28;20024;-66
2022/07/28 04:54:33;;;;;;;2.65;1.40;;;;;;;16.06;63.51;100119.47;5088522;28;20032;-66
2022/07/28 04:56:59;;;;;;;1.92;1.20;;;;;;;16.08;63.70;100127.31;5088333;28;20048;-66
2022/07/28 04:59:24;;;;;;;2.55;1.52;;;;;;;16.07;63.38;100122.97;5088038;28;20040;-66
2022/07/28 05:01:49;;;;;;;3.25;1.60;;;;;;;16.14;63.85;100118.41;5088411;28;20040;-64
2022/07/28 05:04:15;;;;;;;1.75;1.33;;;;;;;16.28;64.45;100123.50;5088542;28;20113;-64
2022/07/28 05:06:40;;;;;;;4.28;1.15;;;;;;;16.36;63.88;100119.72;5088432;28;20477;-64
2022/07/28 05:09:06;;;;;;;3.38;1.70;;;;;;;16.41;62.95;100114.53;5086820;28;20040;-63
2022/07/28 05:11:31;;;;;;;3.30;1.25;;;;;;;16.46;62.54;100117.41;5088228;28;20062;-64
2022/07/28 05:13:57;;;;;;;5.55;1.55;;;;;;;16.42;62.09;100115.38;5088235;28;20036;-63
2022/07/28 05:16:22;;;;;;;3.33;1.40;;;;;;;16.47;62.43;100120.94;5088163;28;20047;-63
2022/07/28 05:18:47;;;;;;;3.17;1.38;;;;;;;16.55;62.16;100121.50;5088015;28;20044;-63
2022/07/28 05:21:13;;;;;;;2.75;1.30;;;;;;;16.61;62.63;100119.81;5087748;28;20047;-64
2022/07/28 05:23:38;;;;;;;2.88;1.50;;;;;;;16.66;61.86;100122.69;5086881;28;20032;-64
2022/07/28 05:26:05;;;;;;;2.00;1.20;;;;;;;16.73;61.76;100114.63;5088011;28;20404;-63
2022/07/28 05:28:32;;;;;;;2.47;1.55;;;;;;;16.77;61.96;100107.78;5087984;28;20134;-62
2022/07/28 05:30:57;;;;;;;1.98;1.20;;;;;;;16.83;61.47;100117.66;5087842;28;20037;-63
2022/07/28 05:33:23;;;;;;;3.05;1.30;;;;;;;16.83;60.82;100122.22;5078743;28;20378;-64
2022/07/28 05:35:52;;;;;;;3.60;1.20;;;;;;;16.92;61.69;100119.03;5074266;28;20094;-63
2022/07/28 05:38:18;;;;;;;2.85;1.10;;;;;;;16.98;59.77;100120.84;5074244;28;20466;-63
2022/07/28 05:40:43;;;;;;;2.63;1.45;;;;;;;17.04;60.28;100129.94;5073921;28;20107;-66
2022/07/28 05:43:08;;;;;;;1.67;1.10;;;;;;;17.07;60.01;100124.91;5074228;28;20146;-64
2022/07/28 05:45:34;;;;;;;3.47;1.40;;;;;;;17.14;59.45;100118.66;5074334;28;20489;-64
2022/07/28 05:47:59;;;;;;;3.40;1.38;;;;;;;17.16;59.56;100125.50;5074242;28;20035;-64
2022/07/28 05:50:25;;;;;;;2.65;1.40;;;;;;;17.20;59.53;100123.16;5073778;28;20044;-65
2022/07/28 05:52:51;;;;;;;4.65;1.45;;;;;;;17.24;59.53;100121.69;5074134;28;20436;-64
2022/07/28 05:55:17;;;;;;;3.92;1.23;;;;;;;17.28;59.50;100120.22;5072765;28;20032;-64
2022/07/28 05:57:44;;;;;;;2.03;1.30;;;;;;;17.33;59.27;100117.69;5056125;28;20075;-64
2022/07/28 06:00:12;;;;;;;2.20;1.30;;;;;;;17.40;59.69;100131.09;5073638;28;20118;-64
2022/07/28 06:02:38;;;;;;;1.80;1.30;;;;;;;17.47;58.88;100129.16;5073804;28;20097;-64
2022/07/28 06:05:05;;;;;;;2.60;1.20;;;;;;;17.51;58.66;100131.19;5074027;28;20378;-64
2022/07/28 06:07:31;;;;;;;2.42;1.10;;;;;;;17.56;58.36;100130.53;5073664;28;20047;-63
2022/07/28 06:09:56;;;;;;;4.50;1.45;;;;;;;17.65;58.00;100126.50;5072121;28;20396;-64
2022/07/28 06:12:22;;;;;;;3.75;1.50;;;;;;;17.67;57.50;100132.50;5073746;28;20036;-63
2022/07/28 06:14:47;;;;;;;2.05;1.30;;;;;;;17.73;57.51;100122.72;5073904;28;20059;-64
2022/07/28 06:17:14;;;;;;;5.50;1.50;;;;;;;17.82;57.45;100122.22;5073550;28;20039;-64
2022/07/28 06:19:41;;;;;;;3.08;1.15;;;;;;;17.83;57.51;100117.66;5073159;28;20082;-65
2022/07/28 06:22:06;;;;;;;4.37;1.40;;;;;;;17.85;57.69;100110.16;5073348;28;20036;-64
2022/07/28 06:24:32;;;;;;;4.10;1.25;;;;;;;17.86;57.79;100111.81;5073429;28;20036;-65
2022/07/28 06:26:59;;;;;;;2.75;1.05;;;;;;;17.88;57.37;100109.72;5073408;28;20040;-64
2022/07/28 06:29:25;;;;;;;2.28;1.40;;;;;;;17.94;57.71;100114.22;5073173;28;20058;-64
2022/07/28 06:31:50;;;;;;;3.88;1.33;;;;;;;17.96;57.52;100116.69;5073350;28;20488;-64
2022/07/28 06:34:16;;;;;;;4.38;1.20;;;;;;;18.05;57.44;100120.72;5073388;28;20400;-64
2022/07/28 06:36:41;;;;;;;2.80;1.40;;;;;;;18.13;57.63;100121.25;5073221;28;20051;-64
2022/07/28 06:39:07;;;;;;;3.25;1.05;;;;;;;18.23;56.82;100122.59;5072964;28;20032;-65
2022/07/28 06:41:32;;;;;;;4.50;1.35;;;;;;;18.25;57.02;100123.16;5073001;28;20444;-65
2022/07/28 06:43:57;;;;;;;3.35;1.40;;;;;;;18.31;56.57;100120.41;5072492;28;20524;-63
2022/07/28 06:46:23;;;;;;;4.50;1.50;;;;;;;18.42;57.39;100124.22;5071427;28;20504;-65
2022/07/28 06:48:48;;;;;;;3.30;1.13;;;;;;;18.49;56.49;100127.63;5072885;28;20174;-66
2022/07/28 06:51:17;;;;;;;3.00;1.40;;;;;;;18.50;56.38;100125.75;5072677;28;20058;-64
2022/07/28 06:53:44;;;;;;;3.42;1.20;;;;;;;18.54;56.39;100121.56;5072776;28;20033;-64
2022/07/28 06:56:10;;;;;;;2.43;1.20;;;;;;;18.58;55.89;100120.03;5072854;28;20036;-63
2022/07/28 06:58:35;;;;;;;3.08;1.10;;;;;;;18.67;55.54;100116.84;5072821;28;20047;-64
2022/07/28 07:01:05;;;;;;;1.77;1.20;;;;;;;18.74;55.18;100122.16;5072410;28;20033;-64
2022/07/28 07:03:31;;;;;;;1.63;1.27;;;;;;;18.89;55.36;100117.13;5072788;28;20162;-65
2022/07/28 07:05:56;;;;;;;3.70;1.30;;;;;;;18.98;55.13;100110.38;5072687;28;20063;-64
2022/07/28 07:08:22;;;;;;;4.32;1.42;;;;;;;19.16;54.50;100105.91;5072636;28;20033;-63
2022/07/28 07:10:47;;;;;;;3.95;1.38;;;;;;;19.29;54.46;100105.69;5072202;28;20033;-64
2022/07/28 07:13:12;;;;;;;5.20;1.45;;;;;;;19.31;53.65;100106.31;5072516;28;20032;-62
2022/07/28 07:15:38;;;;;;;2.60;1.33;;;;;;;19.36;54.11;100100.19;5072460;28;20454;-63
2022/07/28 07:18:03;;;;;;;3.35;1.70;;;;;;;19.29;53.84;100105.69;5072455;28;20111;-62
2022/07/28 07:20:29;;;;;;;2.63;1.27;;;;;;;19.38;54.50;100098.09;5071941;28;20044;-61
2022/07/28 07:22:54;;;;;;;1.60;1.15;;;;;;;19.39;54.23;100099.72;5072330;28;20040;-63
2022/07/28 07:25:20;;;;;;;1.98;1.35;;;;;;;19.32;54.24;100105.25;5072271;28;20036;-62
2022/07/28 07:27:46;;;;;;;2.92;1.55;;;;;;;19.32;55.06;100107.13;5072419;28;20474;-64
2022/07/28 07:30:13;;;;;;;3.90;1.70;;;;;;;19.40;54.79;100101.38;5070528;28;20047;-64
2022/07/28 07:32:38;;;;;;;2.85;1.52;;;;;;;19.55;54.92;100099.00;5072176;28;20043;-63
2022/07/28 07:35:05;;;;;;;2.55;1.50;;;;;;;19.68;54.31;100100.69;5072120;28;20037;-61
2022/07/28 07:37:31;;;;;;;2.70;1.42;;;;;;;19.80;54.15;100093.38;5071817;28;20040;-64
2022/07/28 07:39:58;;;;;;;2.15;1.50;;;;;;;19.81;53.83;100092.31;5071755;28;20044;-62
2022/07/28 07:42:24;;;;;;;4.82;1.70;;;;;;;19.92;54.27;100094.19;5072004;28;20038;-64
2022/07/28 07:44:49;;;;;;;3.30;1.52;;;;;;;19.98;53.69;100097.81;5071886;28;20028;-63
2022/07/28 07:47:15;;;;;;;3.15;1.65;;;;;;;20.09;53.37;100093.47;5072315;28;20037;-59
2022/07/28 07:49:40;;;;;;;3.35;1.70;;;;;;;20.05;52.86;100091.22;5071787;28;20032;-61
2022/07/28 07:52:06;;;;;;;3.25;1.80;;;;;;;20.20;52.57;100092.59;5071837;28;20041;-63
2022/07/28 07:54:31;;;;;;;2.67;1.33;;;;;;;20.26;52.63;100099.75;5071865;28;20040;-62
2022/07/28 07:56:57;;;;;;;3.47;2.00;;;;;;;20.42;52.99;100099.00;5071491;28;20032;-64
2022/07/28 07:59:22;;;;;;;5.05;1.63;;;;;;;20.56;52.43;100094.97;5071481;28;20150;-61
2022/07/28 08:01:53;;;;;;;2.72;1.50;;;;;;;20.71;52.20;100090.88;5071731;28;20056;-64
2022/07/28 08:04:20;;;;;;;3.53;1.70;;;;;;;20.80;51.70;100087.56;5071817;28;20043;-62
2022/07/28 08:06:46;;;;;;;2.20;1.50;;;;;;;20.97;51.87;100081.31;5071634;28;20028;-62
2022/07/28 08:09:12;;;;;;;2.40;1.70;;;;;;;21.11;51.50;100072.63;5070169;28;20166;-63
2022/07/28 08:11:37;;;;;;;4.60;1.83;;;;;;;21.20;50.99;100070.34;5071571;28;20123;-63
2022/07/28 08:14:02;;;;;;;3.90;1.80;;;;;;;21.03;51.07;100073.03;5071609;28;20047;-64
2022/07/28 08:16:28;;;;;;;2.97;1.50;;;;;;;20.98;51.86;100082.94;5071604;28;20611;-64
2022/07/28 08:18:57;;;;;;;2.88;1.65;;;;;;;21.04;51.29;100085.50;5071395;28;20446;-62
2022/07/28 08:21:24;;;;;;;3.20;1.70;;;;;;;21.23;51.71;100085.25;5071232;28;20064;-64
2022/07/28 08:23:50;;;;;;;3.80;1.85;;;;;;;21.40;51.40;100088.81;5071554;28;20570;-62
2022/07/28 08:26:15;;;;;;;2.22;1.80;;;;;;;21.37;50.62;100073.84;5071400;28;20037;-63
2022/07/28 08:28:41;;;;;;;3.25;1.90;;;;;;;21.39;50.90;100070.94;5070235;28;20040;-63
2022/07/28 08:31:06;;;;;;;4.25;2.35;;;;;;;21.58;51.12;100076.84;5071161;28;20037;-62
2022/07/28 08:33:32;;;;;;;4.28;1.80;;;;;;;21.74;51.04;100073.31;5071296;28;20055;-62
2022/07/28 08:35:57;;;;;;;3.17;2.00;;;;;;;21.87;50.10;100066.69;5071337;28;20123;-60
2022/07/28 08:38:22;;;;;;;2.83;1.90;;;;;;;21.86;50.25;100074.00;5070129;28;20041;-61
2022/07/28 08:40:50;;;;;;;3.90;1.90;;;;;;;22.00;49.59;100073.63;5071031;28;20051;-63
2022/07/28 08:43:37;;;;;;;5.38;2.08;;;;;;;22.22;49.28;100063.59;5071379;28;20516;-62
2022/07/28 08:46:05;;;;;;;5.60;2.40;;;;;;;22.18;49.17;100067.91;5071184;28;20024;-59
2022/07/28 08:48:33;;;;;;;4.82;2.33;;;;;;;22.23;49.82;100076.09;5071272;28;20054;-62
2022/07/28 08:51:09;;;;;;;3.33;2.08;;;;;;;22.27;49.30;100074.53;5069846;28;20135;-60
2022/07/28 08:53:37;;;;;;;3.20;1.92;;;;;;;22.46;49.59;100067.69;5071353;28;20464;-62
2022/07/28 08:56:07;;;;;;;4.60;1.95;;;;;;;22.48;49.32;100062.81;5071165;28;20054;-60
2022/07/28 08:58:34;;;;;;;4.60;2.20;;;;;;;22.74;49.56;100063.06;5071109;28;20040;-59
2022/07/28 09:01:00;;;;;;;;;;;;;;;22.81;48.84;100060.94;5071345;28;20040;-61
2022/07/28 09:03:27;;;;;;;5.80;2.42;;;;;;;22.99;48.56;100062.50;5071308;28;19912;-62
2022/07/28 09:05:53;;;;;;;3.72;2.05;;;;;;;23.13;47.97;100052.00;5071070;28;20448;-62
2022/07/28 09:08:19;;;;;;;3.65;2.42;;;;;;;23.11;48.86;100059.59;5072782;28;20040;-61
2022/07/28 09:10:46;;;;;;;3.00;2.42;;;;;;;23.29;48.73;100051.84;5074668;28;20432;-62
2022/07/28 09:13:12;;;;;;;7.17;2.93;;;;;;;23.29;48.28;100045.59;5074731;28;20060;-62
2022/07/28 09:15:38;;;;;;;3.75;2.67;;;;;;;23.56;47.92;100043.59;5073525;28;20039;-61
2022/07/28 09:18:04;;;;;;;5.22;2.40;;;;;;;23.83;47.46;100039.94;5074831;28;20453;-62
2022/07/28 09:20:29;;;;;;;3.88;2.28;;;;;;;24.09;47.47;100041.66;5074351;28;20036;-63
2022/07/28 09:22:58;;;;;;;3.13;2.20;;;;;;;24.23;46.40;100039.25;5074750;28;20044;-60
2022/07/28 09:25:24;;;;;;;3.08;2.50;;;;;;;24.59;46.44;100042.91;5074407;28;20082;-64
2022/07/28 09:27:50;;;;;;;2.80;2.10;;;;;;;24.62;44.85;100044.25;5074397;28;20036;-63
2022/07/28 09:30:27;;;;;;;3.53;2.47;;;;;;;24.89;45.39;100044.00;5074430;28;20051;-60
2022/07/28 09:33:10;;;;;;;4.17;2.57;;;;;;;25.33;45.33;100047.00;5073270;28;20382;-60
2022/07/28 09:35:45;;;;;;;4.80;2.60;;;;;;;25.29;44.68;100035.00;5074361;28;20324;-62
2022/07/28 09:38:12;;;;;;;4.28;2.45;;;;;;;25.39;44.43;100042.34;5074302;28;20071;-62
2022/07/28 09:40:38;;;;;;;3.35;2.78;;;;;;;25.42;43.06;100030.88;5073992;28;20036;-59
2022/07/28 09:43:03;;;;;;;6.40;2.47;;;;;;;25.31;43.82;100032.03;5074168;28;20043;-61
2022/07/28 09:45:29;;;;;;;4.70;2.63;;;;;;;25.49;43.53;100036.84;5074049;28;20044;-59
2022/07/28 09:48:13;;;;;;;6.00;2.65;;;;;;;25.71;43.41;100026.44;5074109;28;20036;-60
2022/07/28 09:50:40;;;;;;;2.95;2.03;;;;;;;25.90;43.53;100029.41;5073799;28;20047;-60
2022/07/28 09:53:26;;;;;;;3.03;2.42;;;;;;;26.15;42.22;100016.72;5072785;28;20040;-61
2022/07/28 09:55:57;;;;;;;3.97;2.33;;;;;;;25.97;43.37;100015.44;5073770;28;20048;-60
2022/07/28 09:58:23;;;;;;;7.13;2.78;;;;;;;26.37;42.75;100017.13;5074105;28;20090;-60
2022/07/28 10:00:48;;;;;;;6.93;3.15;;;;;;;26.37;42.27;100017.13;5073518;28;20048;-57
2022/07/28 10:03:24;;;;;;;4.78;2.53;;;;;;;26.33;42.01;99996.94;5073803;28;20072;-60
2022/07/28 10:05:50;;;;;;;5.20;2.58;;;;;;;26.55;42.04;100003.94;5073798;28;20044;-59
2022/07/28 10:08:15;;;;;;;3.45;2.58;;;;;;;26.82;41.75;100000.69;5073812;28;20045;-59
2022/07/28 10:10:41;;;;;;;5.05;2.80;;;;;;;26.86;41.90;99990.81;5073335;28;20040;-60
2022/07/28 10:13:06;;;;;;;4.53;2.65;;;;;;;27.33;41.84;99983.84;5072397;28;20119;-62
2022/07/28 10:18:16;;;;;;;4.30;2.67;;;;;;;27.74;40.92;99990.47;5073565;28;20060;-58
2022/07/28 10:20:43;;;;;;;4.07;2.67;;;;;;;28.04;40.03;99988.44;5073363;28;20089;-61
2022/07/28 10:23:12;;;;;;;3.80;2.63;;;;;;;28.18;39.31;99980.31;5073715;28;20048;-60
2022/07/28 10:25:39;;;;;;;5.28;2.80;;;;;;;28.31;39.81;99985.88;5073551;28;20032;-60
2022/07/28 10:28:05;;;;;;;3.95;2.70;;;;;;;28.45;39.42;99976.91;5073496;28;20040;-62
2022/07/28 10:30:39;;;;;;;5.78;2.70;;;;;;;28.59;38.95;99977.75;5073122;28;20482;-60
2022/07/28 10:33:13;;;;;;;3.33;2.58;;;;;;;27.90;40.07;99971.09;5073332;28;20047;-60
2022/07/28 10:35:39;;;;;;;4.28;2.70;;;;;;;27.49;40.40;99980.63;5073402;28;20043;-58
2022/07/28 10:38:12;;;;;;;6.20;3.03;;;;;;;27.44;41.16;99972.47;5073267;28;20107;-61
2022/07/28 10:40:46;;;;;;;4.75;2.47;;;;;;;27.92;40.89;99974.38;5071751;28;20088;-61
2022/07/28 10:43:12;;;;;;;7.63;3.03;;;;;;;28.22;40.28;99973.09;5071915;28;20055;-61
2022/07/28 10:45:39;;;;;;;5.33;2.87;;;;;;;28.58;40.15;99970.66;5073146;28;20129;-59
2022/07/28 10:48:05;;;;;;;4.15;2.75;;;;;;;28.46;39.82;99970.31;5073218;28;20044;-60
2022/07/28 10:50:32;;;;;;;5.30;2.97;;;;;;;28.43;39.39;99970.88;5073038;28;20068;-59
2022/07/28 10:52:58;;;;;;;3.33;2.60;;;;;;;28.04;39.45;99963.81;5071840;28;20302;-61
2022/07/28 10:55:47;;;;;;;4.40;2.63;;;;;;;28.15;41.01;99967.19;5072840;28;20388;-61
2022/07/28 10:58:23;;;;;;;4.85;2.90;;;;;;;27.88;40.39;99968.66;5073047;28;20447;-60
2022/07/28 11:00:50;;;;;;;4.63;3.15;;;;;;;28.21;40.80;99969.56;5071299;28;20186;-60
2022/07/28 11:03:41;;;;;;;5.50;2.92;;;;;;;28.28;40.13;99975.47;5073104;28;20032;-62
2022/07/28 11:06:35;;;;;;;7.30;2.90;;;;;;;28.71;39.03;99971.81;5072576;28;20036;-62
2022/07/28 11:09:16;;;;;;;4.10;2.60;;;;;;;29.16;38.17;99971.03;5072521;28;20128;-63
2022/07/28 11:11:56;;;;;;;7.13;3.20;;;;;;;29.62;38.27;99958.34;5072441;28;20478;-61
2022/07/28 11:14:22;;;;;;;3.83;2.75;;;;;;;29.81;37.17;99963.72;5072444;28;20036;-63
2022/07/28 11:17:13;;;;;;;7.40;3.00;;;;;;;30.44;35.91;99958.13;5072308;28;20547;-63
2022/07/28 11:19:45;;;;;;;5.57;2.92;;;;;;;31.00;36.19;99955.91;5072105;28;20119;-63
2022/07/28 11:22:13;;;;;;;3.80;2.70;;;;;;;31.40;34.87;99950.44;5072225;28;20036;-62
2022/07/28 11:24:57;;;;;;;2.78;2.55;;;;;;;31.27;34.98;99943.94;5072274;28;20028;-63
2022/07/28 11:30:09;;;;;;;3.25;2.50;;;;;;;31.34;34.40;99936.03;5071471;28;20032;-62
2022/07/28 11:32:50;;;;;;;4.80;2.88;;;;;;;31.26;34.15;99939.56;5072071;28;20363;-63
2022/07/28 11:35:17;;;;;;;5.60;3.05;;;;;;;31.04;35.12;99926.66;5072019;28;20029;-63
2022/07/28 11:38:01;;;;;;;4.53;3.08;;;;;;;31.48;34.03;99931.19;5072113;28;20033;-63
2022/07/28 11:40:30;;;;;;;3.67;3.00;;;;;;;30.86;34.60;99936.78;5071659;28;20342;-62
2022/07/28 11:43:21;;;;;;;3.75;2.95;;;;;;;31.54;33.60;99921.66;5071989;28;20024;-62
2022/07/28 11:45:51;;;;;;;6.80;3.20;;;;;;;31.58;33.70;99910.84;5071878;28;20048;-62
2022/07/28 11:48:20;;;;;;;5.50;3.83;;;;;;;31.74;33.54;99908.41;5072015;28;20047;-61
2022/07/28 11:51:03;;;;;;;5.28;2.95;;;;;;;31.97;34.45;99915.44;5071612;28;20032;-63
2022/07/28 11:53:49;;;;;;;4.03;2.60;;;;;;;32.19;32.65;99913.63;5071759;28;20040;-62
2022/07/28 11:56:24;;;;;;;4.03;2.90;;;;;;;32.18;32.16;99918.34;5071822;28;20043;-63
2022/07/28 11:59:01;;;;;;;5.18;2.67;;;;;;;32.17;33.18;99911.22;5070484;28;20037;-63
2022/07/28 12:01:26;;;;;;;3.85;3.13;;;;;;;32.30;32.43;99910.22;5071728;28;20028;-62
2022/07/28 12:03:54;;;;;;;4.03;3.20;;;;;;;32.18;31.88;99909.25;5071849;28;20505;-63
2022/07/28 12:06:21;;;;;;;6.05;3.00;;;;;;;32.24;32.76;99892.25;5071628;28;20131;-63
2022/07/28 12:08:49;;;;;;;;;;;;;;;32.44;32.33;99907.31;5072008;28;20112;-63
2022/07/28 12:11:15;;;;;;;4.22;3.00;;;;;;;32.33;32.50;99908.78;5070002;28;19916;-64
2022/07/28 12:13:40;;;;;;;3.23;2.80;;;;;;;32.76;33.00;99894.91;5071643;28;20039;-62
2022/07/28 12:16:05;;;;;;;4.07;2.90;;;;;;;33.09;30.87;99880.53;5071644;28;20041;-61
2022/07/28 12:18:31;;;;;;;4.77;2.70;;;;;;;32.10;31.91;99884.16;5070431;28;20036;-63
2022/07/28 12:20:56;;;;;;;5.43;2.57;;;;;;;32.21;32.46;99892.06;5071175;28;20037;-61
2022/07/28 12:23:35;;;;;;;3.90;2.80;;;;;;;32.16;32.75;99893.06;5070337;28;20076;-61
2022/07/28 12:26:03;;;;;;;3.85;2.97;;;;;;;31.97;32.26;99892.59;5071471;28;20064;-63
2022/07/28 12:28:31;;;;;;;3.90;2.65;;;;;;;31.98;33.00;99886.75;5071726;28;20044;-65
2022/07/28 12:31:26;;;;;;;8.27;3.38;;;;;;;31.95;33.02;99879.16;5071207;28;20048;-61
2022/07/28 12:33:51;;;;;;;4.63;2.50;;;;;;;31.68;33.86;99877.47;5068959;28;20520;-64
2022/07/28 12:36:20;;;;;;;4.13;3.00;;;;;;;31.29;33.12;99865.44;5071338;28;20036;-63
2022/07/28 12:38:46;;;;;;;3.53;3.10;;;;;;;31.02;33.88;99871.16;5071276;28;20079;-61
2022/07/28 12:41:14;;;;;;;4.07;2.80;;;;;;;30.90;34.44;99868.19;5071175;28;20052;-62
2022/07/28 12:43:48;;;;;;;5.68;3.08;;;;;;;30.63;34.26;99869.19;5073640;28;20119;-63
2022/07/28 12:46:29;;;;;;;3.38;2.92;;;;;;;30.56;34.14;99871.56;5075368;28;20048;-62
2022/07/28 12:48:56;;;;;;;3.60;2.95;;;;;;;30.67;33.92;99861.94;5075185;28;20040;-63
2022/07/28 12:51:41;;;;;;;3.92;2.80;;;;;;;30.68;33.83;99855.34;5074921;28;20055;-59
2022/07/28 12:54:12;;;;;;;4.97;2.60;;;;;;;31.07;34.80;99863.56;5075113;28;20486;-60
2022/07/28 12:56:51;;;;;;;5.05;2.63;;;;;;;31.41;32.72;99851.06;5075136;28;20052;-60
2022/07/28 12:59:18;;;;;;;3.47;2.70;;;;;;;31.02;33.69;99849.97;5074835;28;20028;-60
2022/07/28 13:01:54;;;;;;;4.65;2.92;;;;;;;31.22;33.40;99859.56;5075084;28;20397;-63
2022/07/28 13:04:48;;;;;;;4.15;3.10;;;;;;;30.85;34.16;99847.19;5074932;28;20032;-63
2022/07/28 13:07:23;;;;;;;4.50;2.92;;;;;;;30.30;34.46;99854.94;5074934;28;20063;-62
2022/07/28 13:10:01;;;;;;;3.13;2.55;;;;;;;30.62;34.89;99851.06;5074626;28;20449;-60
2022/07/28 13:12:29;;;;;;;5.18;2.55;;;;;;;30.45;34.62;99847.13;5074734;28;20443;-62
2022/07/28 13:14:57;;;;;;;6.82;2.95;;;;;;;30.61;34.72;99841.22;5073493;28;20107;-62
2022/07/28 13:17:25;;;;;;;5.18;3.00;;;;;;;30.84;34.03;99839.22;5074845;28;20040;-62
2022/07/28 13:20:03;;;;;;;2.75;2.45;;;;;;;31.18;33.43;99833.84;5074389;28;20035;-62
2022/07/28 13:22:31;;;;;;;3.50;2.80;;;;;;;31.49;32.54;99833.75;5074678;28;20041;-60
2022/07/28 13:24:57;;;;;;;2.70;2.50;;;;;;;32.05;31.82;99834.75;5074635;28;20028;-62
2022/07/28 13:27:22;;;;;;;4.43;2.85;;;;;;;32.06;31.74;99827.28;5074403;28;20355;-62
2022/07/28 13:29:48;;;;;;;5.10;2.70;;;;;;;31.98;32.30;99828.91;5074338;28;20129;-63
2022/07/28 13:32:14;;;;;;;4.33;2.80;;;;;;;31.29;32.31;99826.13;5074462;28;20505;-62
2022/07/28 13:34:41;;;;;;;3.37;2.67;;;;;;;31.55;32.02;99818.69;5074408;28;20052;-62
2022/07/28 13:37:06;;;;;;;;;;;;;;;31.17;32.84;99823.16;5074840;28;20036;-63
2022/07/28 13:39:32;;;;;;;4.03;2.67;;;;;;;31.27;32.75;99828.38;5074124;28;20280;-62
2022/07/28 13:41:57;;;;;;;4.25;2.72;;;;;;;31.05;33.21;99810.84;5073123;28;20037;-62
2022/07/28 13:44:22;;;;;;;3.33;2.38;;;;;;;31.27;33.27;99815.44;5073039;28;20041;-63
2022/07/28 13:46:48;;;;;;;4.78;3.15;;;;;;;31.18;33.11;99811.03;5074267;28;20040;-60
2022/07/28 13:49:14;;;;;;;3.10;2.78;;;;;;;30.66;33.37;99806.16;5074036;28;20544;-61
2022/07/28 13:51:39;;;;;;;3.58;2.58;;;;;;;30.40;33.71;99803.31;5074069;28;20102;-62
2022/07/28 13:54:04;;;;;;;3.33;2.30;;;;;;;30.45;33.32;99799.59;5055757;28;20037;-62
2022/07/28 13:56:40;;;;;;;3.30;2.80;;;;;;;30.61;33.57;99806.31;5072694;28;20117;-61
2022/07/28 13:59:06;;;;;;;5.50;2.50;;;;;;;30.45;33.40;99805.91;5073720;28;20086;-62
2022/07/28 14:01:31;;;;;;;2.92;2.63;;;;;;;30.37;33.14;99803.09;5073990;28;20040;-62
2022/07/28 14:03:56;;;;;;;3.42;2.80;;;;;;;30.38;33.39;99791.78;5074034;28;20040;-62
2022/07/28 14:06:22;;;;;;;4.00;2.85;;;;;;;30.43;33.02;99793.59;5073834;28;20072;-55
2022/07/28 14:08:47;;;;;;;3.20;2.90;;;;;;;30.40;33.23;99788.75;5073718;28;20048;-60
2022/07/28 14:11:14;;;;;;;3.50;2.65;;;;;;;30.41;34.07;99782.13;5073483;28;20047;-63
2022/07/28 14:13:40;;;;;;;4.15;2.47;;;;;;;30.28;33.84;99783.84;5073898;28;20067;-62
2022/07/28 14:16:06;;;;;;;2.67;2.45;;;;;;;30.21;34.13;99788.97;5073648;28;20486;-62
2022/07/28 14:18:32;;;;;;;5.03;2.63;;;;;;;30.17;33.51;99782.47;5073576;28;20039;-63
2022/07/28 14:20:57;;;;;;;4.50;2.72;;;;;;;29.91;34.09;99785.03;5073120;28;20513;-62
2022/07/28 14:23:23;;;;;;;4.88;2.78;;;;;;;29.76;34.65;99780.75;5073543;28;20492;-62
2022/07/28 14:25:48;;;;;;;3.90;2.70;;;;;;;29.79;34.73;99784.78;5073361;28;20606;-63
2022/07/28 14:28:14;;;;;;;6.28;3.22;;;;;;;29.65;34.88;99784.84;5073475;28;20512;-63
2022/07/28 14:30:39;;;;;;;5.97;2.80;;;;;;;29.78;35.26;99789.47;5073194;28;20513;-63
2022/07/28 14:33:05;;;;;;;5.32;2.80;;;;;;;29.75;34.80;99781.06;5073391;28;20509;-63
2022/07/28 14:35:31;;;;;;;2.75;2.55;;;;;;;29.79;34.69;99782.84;5073170;28;20133;-63
2022/07/28 14:37:56;;;;;;;2.83;2.42;;;;;;;29.87;34.99;99789.56;5073280;28;20047;-60
2022/07/28 14:40:22;;;;;;;3.70;2.50;;;;;;;29.99;34.36;99782.38;5072823;28;20036;-63
2022/07/28 14:42:48;;;;;;;5.50;2.70;;;;;;;30.06;34.21;99781.09;5073075;28;20370;-63
2022/07/28 14:45:13;;;;;;;3.60;2.90;;;;;;;30.03;34.60;99789.97;5073154;28;20044;-63
2022/07/28 14:47:38;;;;;;;3.60;2.40;;;;;;;30.11;33.84;99778.25;5073037;28;20036;-62
2022/07/28 14:50:05;;;;;;;5.55;2.85;;;;;;;30.11;33.93;99772.75;5072716;28;20438;-64
2022/07/28 14:52:30;;;;;;;3.22;2.60;;;;;;;30.20;34.07;99771.69;5072863;28;20079;-63
2022/07/28 14:54:56;;;;;;;7.13;2.70;;;;;;;30.08;33.89;99762.38;5072756;28;20071;-62
2022/07/28 14:57:22;;;;;;;2.70;2.40;;;;;;;29.97;33.75;99770.06;5072784;28;20032;-63
2022/07/28 14:59:48;;;;;;;3.55;2.40;;;;;;;29.78;34.04;99769.44;5072726;28;20047;-61
2022/07/28 15:02:13;;;;;;;2.65;2.45;;;;;;;29.81;34.03;99774.34;5071453;28;20218;-61
2022/07/28 15:04:39;;;;;;;2.88;2.60;;;;;;;29.89;33.49;99762.59;5072502;28;20047;-62
2022/07/28 15:07:05;;;;;;;3.20;2.58;;;;;;;29.85;33.67;99770.63;5071927;28;20033;-63
2022/07/28 15:09:31;;;;;;;4.60;2.80;;;;;;;29.97;34.55;99759.88;5072231;28;20032;-61
2022/07/28 15:11:56;;;;;;;4.50;2.65;;;;;;;30.11;34.33;99754.34;5072413;28;20472;-62
2022/07/28 15:14:22;;;;;;;4.82;2.80;;;;;;;30.15;33.64;99760.03;5072503;28;20052;-63
2022/07/28 15:16:48;;;;;;;5.80;2.58;;;;;;;30.07;33.43;99758.84;5072451;28;20037;-62
2022/07/28 15:19:14;;;;;;;3.78;2.70;;;;;;;30.16;33.37;99751.47;5072219;28;20128;-61
2022/07/28 15:21:39;;;;;;;4.38;2.90;;;;;;;30.15;33.02;99743.56;5072248;28;20123;-63
2022/07/28 15:24:08;;;;;;;4.63;2.45;;;;;;;30.20;33.59;99751.66;5072406;28;20046;-63
2022/07/28 15:26:34;;;;;;;3.13;2.67;;;;;;;30.05;33.10;99752.81;5072331;28;20139;-60
2022/07/28 15:29:00;;;;;;;3.95;2.90;;;;;;;29.98;33.40;99750.53;5071053;28;20485;-61
2022/07/28 15:31:25;;;;;;;3.00;2.70;;;;;;;29.83;33.55;99747.38;5072020;28;20047;-62
2022/07/28 15:33:53;;;;;;;5.60;2.67;;;;;;;29.82;33.47;99746.56;5072176;28;20410;-62
2022/07/28 15:36:19;;;;;;;3.28;2.53;;;;;;;29.64;34.14;99753.06;5072102;28;20044;-63
2022/07/28 15:38:45;;;;;;;2.90;2.55;;;;;;;29.73;33.88;99752.00;5071885;28;20036;-63
2022/07/28 15:41:10;;;;;;;4.45;2.75;;;;;;;29.76;34.05;99745.06;5071753;28;20115;-62
2022/07/28 15:43:36;;;;;;;4.32;2.38;;;;;;;29.72;34.16;99746.81;5072018;28;20127;-62
2022/07/28 15:46:08;;;;;;;2.97;2.50;;;;;;;29.77;33.70;99749.44;5071915;28;20040;-62
2022/07/28 15:48:34;;;;;;;5.35;2.70;;;;;;;29.78;33.43;99751.03;5071926;28;20036;-62
2022/07/28 15:51:00;;;;;;;3.03;2.40;;;;;;;29.55;33.86;99741.22;5071529;28;20024;-62
2022/07/28 15:53:26;;;;;;;4.30;2.40;;;;;;;29.66;33.85;99742.56;5070638;28;20044;-62
2022/07/28 15:55:52;;;;;;;4.13;2.70;;;;;;;29.57;34.29;99733.47;5071685;28;20055;-62
2022/07/28 15:58:19;;;;;;;4.82;2.78;;;;;;;29.59;34.19;99728.47;5071863;28;20028;-63
2022/07/28 16:00:44;;;;;;;6.22;2.67;;;;;;;29.54;34.48;99734.06;5071514;28;20470;-61